sensor_id;sensor_type;location;lat;lon;timestamp;P1;durP1;ratioP1;P2;durP2;ratioP2
82417;SDS011;75985;53.734;10.260;2024-01-30T00:01:45;4.58;;;3.72;;
82417;SDS011;75985;53.734;10.260;2024-01-30T00:04:50;3.65;;;3.30;;
82417;SDS011;75985;53.734;10.260;2024-01-30T00:07:54;3.70;;;3.20;;
82417;SDS011;75985;53.734;10.260;2024-01-30T00:10:59;4.58;;;3.87;;
82417;SDS011;75985;53.734;10.260;2024-01-30T00:14:04;4.70;;;3.52;;
82417;SDS011;75985;53.734;10.260;2024-01-30T00:17:09;4.25;;;3.85;;
82417;SDS011;75985;53.734;10.260;2024-01-30T00:20:13;3.80;;;3.37;;
82417;SDS011;75985;53.734;10.260;2024-01-30T00:23:18;4.20;;;3.80;;
82417;SDS011;75985;53.734;10.260;2024-01-30T00:26:22;3.98;;;3.33;;
82417;SDS011;75985;53.734;10.260;2024-01-30T00:29:27;4.10;;;3.70;;
82417;SDS011;75985;53.734;10.260;2024-01-30T00:32:33;4.28;;;3.55;;
82417;SDS011;75985;53.734;10.260;2024-01-30T00:35:38;4.60;;;3.92;;
82417;SDS011;75985;53.734;10.260;2024-01-30T00:38:42;4.30;;;3.77;;
82417;SDS011;75985;53.734;10.260;2024-01-30T00:41:47;4.85;;;3.55;;
82417;SDS011;75985;53.734;10.260;2024-01-30T00:44:52;5.05;;;4.17;;
82417;SDS011;75985;53.734;10.260;2024-01-30T00:47:56;4.20;;;3.58;;
82417;SDS011;75985;53.734;10.260;2024-01-30T00:51:01;3.95;;;3.55;;
82417;SDS011;75985;53.734;10.260;2024-01-30T00:54:05;3.70;;;3.37;;
82417;SDS011;75985;53.734;10.260;2024-01-30T00:57:10;5.47;;;3.55;;
82417;SDS011;75985;53.734;10.260;2024-01-30T01:00:15;7.17;;;3.83;;
82417;SDS011;75985;53.734;10.260;2024-01-30T01:03:19;3.83;;;3.52;;
82417;SDS011;75985;53.734;10.260;2024-01-30T01:06:24;4.72;;;3.72;;
82417;SDS011;75985;53.734;10.260;2024-01-30T01:09:28;4.67;;;3.85;;
82417;SDS011;75985;53.734;10.260;2024-01-30T01:12:33;3.98;;;3.50;;
82417;SDS011;75985;53.734;10.260;2024-01-30T01:15:37;4.12;;;3.55;;
82417;SDS011;75985;53.734;10.260;2024-01-30T01:18:42;3.67;;;3.37;;
82417;SDS011;75985;53.734;10.260;2024-01-30T01:21:46;3.92;;;3.12;;
82417;SDS011;75985;53.734;10.260;2024-01-30T01:24:51;3.87;;;3.47;;
82417;SDS011;75985;53.734;10.260;2024-01-30T01:27:55;3.58;;;3.27;;
82417;SDS011;75985;53.734;10.260;2024-01-30T01:31:00;4.55;;;3.42;;
82417;SDS011;75985;53.734;10.260;2024-01-30T01:34:06;4.97;;;3.27;;
82417;SDS011;75985;53.734;10.260;2024-01-30T01:37:10;3.40;;;3.10;;
82417;SDS011;75985;53.734;10.260;2024-01-30T01:40:15;3.25;;;2.95;;
82417;SDS011;75985;53.734;10.260;2024-01-30T01:43:20;3.92;;;3.60;;
82417;SDS011;75985;53.734;10.260;2024-01-30T01:46:26;3.27;;;2.83;;
82417;SDS011;75985;53.734;10.260;2024-01-30T01:49:31;3.62;;;3.25;;
82417;SDS011;75985;53.734;10.260;2024-01-30T01:52:35;4.12;;;3.25;;
82417;SDS011;75985;53.734;10.260;2024-01-30T01:55:40;2.58;;;2.37;;
82417;SDS011;75985;53.734;10.260;2024-01-30T01:58:45;3.30;;;2.80;;
82417;SDS011;75985;53.734;10.260;2024-01-30T02:01:51;3.20;;;2.87;;
82417;SDS011;75985;53.734;10.260;2024-01-30T02:04:57;3.35;;;2.75;;
82417;SDS011;75985;53.734;10.260;2024-01-30T02:08:02;3.22;;;2.92;;
82417;SDS011;75985;53.734;10.260;2024-01-30T02:11:06;3.27;;;2.90;;
82417;SDS011;75985;53.734;10.260;2024-01-30T02:14:12;3.12;;;2.83;;
82417;SDS011;75985;53.734;10.260;2024-01-30T02:17:17;3.00;;;2.75;;
82417;SDS011;75985;53.734;10.260;2024-01-30T02:20:22;3.27;;;2.70;;
82417;SDS011;75985;53.734;10.260;2024-01-30T02:23:28;3.85;;;3.10;;
82417;SDS011;75985;53.734;10.260;2024-01-30T02:26:36;3.40;;;3.10;;
82417;SDS011;75985;53.734;10.260;2024-01-30T02:29:40;3.85;;;3.25;;
82417;SDS011;75985;53.734;10.260;2024-01-30T02:32:45;3.72;;;3.33;;
82417;SDS011;75985;53.734;10.260;2024-01-30T02:35:49;3.47;;;3.17;;
82417;SDS011;75985;53.734;10.260;2024-01-30T02:38:54;3.22;;;2.90;;
82417;SDS011;75985;53.734;10.260;2024-01-30T02:41:58;3.17;;;2.65;;
82417;SDS011;75985;53.734;10.260;2024-01-30T02:45:03;3.90;;;3.00;;
82417;SDS011;75985;53.734;10.260;2024-01-30T02:48:08;4.00;;;3.47;;
82417;SDS011;75985;53.734;10.260;2024-01-30T02:51:13;3.58;;;2.80;;
82417;SDS011;75985;53.734;10.260;2024-01-30T02:54:17;2.77;;;2.58;;
82417;SDS011;75985;53.734;10.260;2024-01-30T02:57:22;3.00;;;2.70;;
82417;SDS011;75985;53.734;10.260;2024-01-30T03:00:26;3.85;;;3.45;;
82417;SDS011;75985;53.734;10.260;2024-01-30T03:03:31;3.22;;;2.92;;
82417;SDS011;75985;53.734;10.260;2024-01-30T03:06:37;3.15;;;2.80;;
82417;SDS011;75985;53.734;10.260;2024-01-30T03:09:41;3.10;;;2.80;;
82417;SDS011;75985;53.734;10.260;2024-01-30T03:12:46;2.72;;;2.52;;
82417;SDS011;75985;53.734;10.260;2024-01-30T03:15:51;4.25;;;3.08;;
82417;SDS011;75985;53.734;10.260;2024-01-30T03:18:55;3.65;;;3.33;;
82417;SDS011;75985;53.734;10.260;2024-01-30T03:22:00;3.75;;;2.92;;
82417;SDS011;75985;53.734;10.260;2024-01-30T03:25:04;3.15;;;2.90;;
82417;SDS011;75985;53.734;10.260;2024-01-30T03:28:09;3.58;;;3.22;;
82417;SDS011;75985;53.734;10.260;2024-01-30T03:31:14;3.90;;;3.30;;
82417;SDS011;75985;53.734;10.260;2024-01-30T03:34:19;3.95;;;3.30;;
82417;SDS011;75985;53.734;10.260;2024-01-30T03:37:24;3.50;;;3.20;;
82417;SDS011;75985;53.734;10.260;2024-01-30T03:40:28;3.95;;;3.52;;
82417;SDS011;75985;53.734;10.260;2024-01-30T03:43:33;4.40;;;3.87;;
82417;SDS011;75985;53.734;10.260;2024-01-30T03:46:37;3.92;;;3.52;;
82417;SDS011;75985;53.734;10.260;2024-01-30T03:49:42;3.35;;;3.00;;
82417;SDS011;75985;53.734;10.260;2024-01-30T03:52:46;5.33;;;4.05;;
82417;SDS011;75985;53.734;10.260;2024-01-30T03:55:51;3.67;;;3.30;;
82417;SDS011;75985;53.734;10.260;2024-01-30T03:58:55;4.10;;;3.70;;
82417;SDS011;75985;53.734;10.260;2024-01-30T04:02:01;4.55;;;4.00;;
82417;SDS011;75985;53.734;10.260;2024-01-30T04:05:05;4.62;;;3.92;;
82417;SDS011;75985;53.734;10.260;2024-01-30T04:08:10;5.28;;;4.40;;
82417;SDS011;75985;53.734;10.260;2024-01-30T04:11:15;4.28;;;3.83;;
82417;SDS011;75985;53.734;10.260;2024-01-30T04:14:21;4.75;;;4.22;;
82417;SDS011;75985;53.734;10.260;2024-01-30T04:17:25;4.25;;;3.85;;
82417;SDS011;75985;53.734;10.260;2024-01-30T04:20:31;4.17;;;3.80;;
82417;SDS011;75985;53.734;10.260;2024-01-30T04:23:36;4.90;;;4.42;;
82417;SDS011;75985;53.734;10.260;2024-01-30T04:26:40;4.72;;;4.28;;
82417;SDS011;75985;53.734;10.260;2024-01-30T04:29:45;4.40;;;4.00;;
82417;SDS011;75985;53.734;10.260;2024-01-30T04:32:49;5.72;;;4.40;;
82417;SDS011;75985;53.734;10.260;2024-01-30T04:35:54;4.67;;;4.20;;
82417;SDS011;75985;53.734;10.260;2024-01-30T04:38:58;5.28;;;4.50;;
82417;SDS011;75985;53.734;10.260;2024-01-30T04:42:03;4.30;;;3.90;;
82417;SDS011;75985;53.734;10.260;2024-01-30T04:45:08;4.70;;;3.40;;
82417;SDS011;75985;53.734;10.260;2024-01-30T04:48:12;4.95;;;4.42;;
82417;SDS011;75985;53.734;10.260;2024-01-30T04:51:17;5.80;;;5.30;;
82417;SDS011;75985;53.734;10.260;2024-01-30T04:54:21;5.00;;;4.53;;
82417;SDS011;75985;53.734;10.260;2024-01-30T04:57:26;6.10;;;4.75;;
82417;SDS011;75985;53.734;10.260;2024-01-30T05:00:30;5.00;;;4.50;;
82417;SDS011;75985;53.734;10.260;2024-01-30T05:03:35;5.78;;;4.72;;
82417;SDS011;75985;53.734;10.260;2024-01-30T05:06:39;5.35;;;4.85;;
82417;SDS011;75985;53.734;10.260;2024-01-30T05:09:44;6.87;;;5.78;;
82417;SDS011;75985;53.734;10.260;2024-01-30T05:12:49;6.62;;;5.65;;
82417;SDS011;75985;53.734;10.260;2024-01-30T05:15:53;6.10;;;5.55;;
82417;SDS011;75985;53.734;10.260;2024-01-30T05:18:58;6.30;;;5.70;;
82417;SDS011;75985;53.734;10.260;2024-01-30T05:22:03;5.75;;;4.83;;
82417;SDS011;75985;53.734;10.260;2024-01-30T05:25:07;6.08;;;4.95;;
82417;SDS011;75985;53.734;10.260;2024-01-30T05:28:12;5.62;;;4.90;;
82417;SDS011;75985;53.734;10.260;2024-01-30T05:31:16;6.28;;;5.22;;
82417;SDS011;75985;53.734;10.260;2024-01-30T05:34:21;6.12;;;5.35;;
82417;SDS011;75985;53.734;10.260;2024-01-30T05:37:25;5.58;;;5.08;;
82417;SDS011;75985;53.734;10.260;2024-01-30T05:40:30;5.65;;;4.97;;
82417;SDS011;75985;53.734;10.260;2024-01-30T05:43:34;5.62;;;5.03;;
82417;SDS011;75985;53.734;10.260;2024-01-30T05:46:39;6.62;;;5.58;;
82417;SDS011;75985;53.734;10.260;2024-01-30T05:49:43;5.95;;;5.35;;
82417;SDS011;75985;53.734;10.260;2024-01-30T05:52:48;6.45;;;5.10;;
82417;SDS011;75985;53.734;10.260;2024-01-30T05:55:53;5.20;;;4.70;;
82417;SDS011;75985;53.734;10.260;2024-01-30T05:58:57;5.55;;;4.95;;
82417;SDS011;75985;53.734;10.260;2024-01-30T06:02:02;6.00;;;5.40;;
82417;SDS011;75985;53.734;10.260;2024-01-30T06:05:06;5.87;;;5.30;;
82417;SDS011;75985;53.734;10.260;2024-01-30T06:08:12;5.35;;;4.85;;
82417;SDS011;75985;53.734;10.260;2024-01-30T06:11:16;4.85;;;4.45;;
82417;SDS011;75985;53.734;10.260;2024-01-30T06:14:21;5.30;;;4.80;;
82417;SDS011;75985;53.734;10.260;2024-01-30T06:17:26;5.67;;;5.17;;
82417;SDS011;75985;53.734;10.260;2024-01-30T06:20:30;5.62;;;4.83;;
82417;SDS011;75985;53.734;10.260;2024-01-30T06:23:35;5.67;;;5.03;;
82417;SDS011;75985;53.734;10.260;2024-01-30T06:26:39;6.78;;;4.53;;
82417;SDS011;75985;53.734;10.260;2024-01-30T06:29:44;5.67;;;5.15;;
82417;SDS011;75985;53.734;10.260;2024-01-30T06:32:49;5.95;;;4.67;;
82417;SDS011;75985;53.734;10.260;2024-01-30T06:35:54;5.83;;;5.20;;
82417;SDS011;75985;53.734;10.260;2024-01-30T06:38:58;6.85;;;6.10;;
82417;SDS011;75985;53.734;10.260;2024-01-30T06:42:03;7.17;;;6.47;;
82417;SDS011;75985;53.734;10.260;2024-01-30T06:45:08;7.35;;;6.12;;
82417;SDS011;75985;53.734;10.260;2024-01-30T06:48:13;6.37;;;5.50;;
82417;SDS011;75985;53.734;10.260;2024-01-30T06:51:17;8.10;;;6.35;;
82417;SDS011;75985;53.734;10.260;2024-01-30T06:54:22;9.48;;;7.40;;
82417;SDS011;75985;53.734;10.260;2024-01-30T06:57:26;7.80;;;6.90;;
82417;SDS011;75985;53.734;10.260;2024-01-30T07:00:33;7.37;;;6.67;;
82417;SDS011;75985;53.734;10.260;2024-01-30T07:03:37;6.50;;;5.83;;
82417;SDS011;75985;53.734;10.260;2024-01-30T07:06:42;6.58;;;5.47;;
82417;SDS011;75985;53.734;10.260;2024-01-30T07:09:46;6.97;;;6.28;;
82417;SDS011;75985;53.734;10.260;2024-01-30T07:12:52;6.58;;;5.85;;
82417;SDS011;75985;53.734;10.260;2024-01-30T07:15:57;7.17;;;5.83;;
82417;SDS011;75985;53.734;10.260;2024-01-30T07:19:02;6.83;;;6.12;;
82417;SDS011;75985;53.734;10.260;2024-01-30T07:22:06;7.05;;;6.35;;
82417;SDS011;75985;53.734;10.260;2024-01-30T07:25:11;6.22;;;5.62;;
82417;SDS011;75985;53.734;10.260;2024-01-30T07:28:16;6.08;;;5.37;;
82417;SDS011;75985;53.734;10.260;2024-01-30T07:31:20;6.65;;;5.70;;
82417;SDS011;75985;53.734;10.260;2024-01-30T07:34:26;5.42;;;4.92;;
82417;SDS011;75985;53.734;10.260;2024-01-30T07:37:30;5.47;;;4.97;;
82417;SDS011;75985;53.734;10.260;2024-01-30T07:40:35;5.33;;;4.47;;
82417;SDS011;75985;53.734;10.260;2024-01-30T07:43:39;5.97;;;5.22;;
82417;SDS011;75985;53.734;10.260;2024-01-30T07:46:44;5.55;;;5.00;;
82417;SDS011;75985;53.734;10.260;2024-01-30T07:49:48;5.83;;;5.20;;
82417;SDS011;75985;53.734;10.260;2024-01-30T07:52:55;5.95;;;5.35;;
82417;SDS011;75985;53.734;10.260;2024-01-30T07:56:00;8.68;;;6.17;;
82417;SDS011;75985;53.734;10.260;2024-01-30T07:59:05;7.40;;;5.60;;
82417;SDS011;75985;53.734;10.260;2024-01-30T08:02:14;6.65;;;6.00;;
82417;SDS011;75985;53.734;10.260;2024-01-30T08:05:18;6.17;;;5.58;;
82417;SDS011;75985;53.734;10.260;2024-01-30T08:08:24;6.05;;;5.45;;
82417;SDS011;75985;53.734;10.260;2024-01-30T08:11:29;5.83;;;5.28;;
82417;SDS011;75985;53.734;10.260;2024-01-30T08:14:34;6.00;;;5.40;;
82417;SDS011;75985;53.734;10.260;2024-01-30T08:17:38;6.12;;;5.53;;
82417;SDS011;75985;53.734;10.260;2024-01-30T08:20:43;5.72;;;4.83;;
82417;SDS011;75985;53.734;10.260;2024-01-30T08:23:48;4.70;;;4.30;;
82417;SDS011;75985;53.734;10.260;2024-01-30T08:26:52;5.10;;;4.60;;
82417;SDS011;75985;53.734;10.260;2024-01-30T08:29:57;5.15;;;4.65;;
82417;SDS011;75985;53.734;10.260;2024-01-30T08:33:01;7.58;;;6.10;;
82417;SDS011;75985;53.734;10.260;2024-01-30T08:36:06;6.53;;;5.55;;
82417;SDS011;75985;53.734;10.260;2024-01-30T08:39:11;5.87;;;5.28;;
82417;SDS011;75985;53.734;10.260;2024-01-30T08:42:15;6.08;;;5.33;;
82417;SDS011;75985;53.734;10.260;2024-01-30T08:45:21;5.80;;;5.30;;
82417;SDS011;75985;53.734;10.260;2024-01-30T08:48:26;6.92;;;5.53;;
82417;SDS011;75985;53.734;10.260;2024-01-30T08:51:30;6.40;;;5.70;;
82417;SDS011;75985;53.734;10.260;2024-01-30T08:54:35;6.95;;;6.25;;
82417;SDS011;75985;53.734;10.260;2024-01-30T08:57:40;7.65;;;6.35;;
82417;SDS011;75985;53.734;10.260;2024-01-30T09:00:45;6.60;;;5.83;;
82417;SDS011;75985;53.734;10.260;2024-01-30T09:03:49;5.85;;;5.25;;
82417;SDS011;75985;53.734;10.260;2024-01-30T09:06:54;8.63;;;6.10;;
82417;SDS011;75985;53.734;10.260;2024-01-30T09:09:58;11.83;;;9.03;;
82417;SDS011;75985;53.734;10.260;2024-01-30T09:13:03;9.65;;;8.65;;
82417;SDS011;75985;53.734;10.260;2024-01-30T09:16:07;9.58;;;7.67;;
82417;SDS011;75985;53.734;10.260;2024-01-30T09:19:12;10.03;;;7.87;;
82417;SDS011;75985;53.734;10.260;2024-01-30T09:22:16;8.38;;;7.42;;
82417;SDS011;75985;53.734;10.260;2024-01-30T09:25:21;8.68;;;7.78;;
82417;SDS011;75985;53.734;10.260;2024-01-30T09:28:25;8.45;;;7.10;;
82417;SDS011;75985;53.734;10.260;2024-01-30T09:31:30;7.30;;;6.60;;
82417;SDS011;75985;53.734;10.260;2024-01-30T09:34:34;8.15;;;7.12;;
82417;SDS011;75985;53.734;10.260;2024-01-30T09:37:39;10.78;;;8.63;;
82417;SDS011;75985;53.734;10.260;2024-01-30T09:40:44;12.88;;;9.73;;
82417;SDS011;75985;53.734;10.260;2024-01-30T09:43:50;12.10;;;9.25;;
82417;SDS011;75985;53.734;10.260;2024-01-30T09:46:57;10.63;;;9.53;;
82417;SDS011;75985;53.734;10.260;2024-01-30T09:50:03;10.40;;;8.38;;
82417;SDS011;75985;53.734;10.260;2024-01-30T09:53:08;9.15;;;8.05;;
82417;SDS011;75985;53.734;10.260;2024-01-30T09:56:13;11.73;;;8.93;;
82417;SDS011;75985;53.734;10.260;2024-01-30T09:59:19;10.13;;;8.63;;
82417;SDS011;75985;53.734;10.260;2024-01-30T10:02:24;9.58;;;8.10;;
82417;SDS011;75985;53.734;10.260;2024-01-30T10:05:28;7.50;;;6.72;;
82417;SDS011;75985;53.734;10.260;2024-01-30T10:08:36;9.95;;;7.55;;
82417;SDS011;75985;53.734;10.260;2024-01-30T10:11:41;7.37;;;6.62;;
82417;SDS011;75985;53.734;10.260;2024-01-30T10:14:45;7.33;;;6.62;;
82417;SDS011;75985;53.734;10.260;2024-01-30T10:17:50;11.18;;;8.33;;
82417;SDS011;75985;53.734;10.260;2024-01-30T10:20:55;9.78;;;7.25;;
82417;SDS011;75985;53.734;10.260;2024-01-30T10:23:59;8.83;;;7.08;;
82417;SDS011;75985;53.734;10.260;2024-01-30T10:27:05;7.25;;;6.50;;
82417;SDS011;75985;53.734;10.260;2024-01-30T10:30:09;9.33;;;8.15;;
82417;SDS011;75985;53.734;10.260;2024-01-30T10:33:14;8.70;;;7.70;;
82417;SDS011;75985;53.734;10.260;2024-01-30T10:36:18;7.62;;;6.83;;
82417;SDS011;75985;53.734;10.260;2024-01-30T10:39:28;6.97;;;6.28;;
82417;SDS011;75985;53.734;10.260;2024-01-30T10:42:33;7.92;;;7.10;;
82417;SDS011;75985;53.734;10.260;2024-01-30T10:45:40;8.15;;;6.70;;
82417;SDS011;75985;53.734;10.260;2024-01-30T10:48:54;9.28;;;7.00;;
82417;SDS011;75985;53.734;10.260;2024-01-30T10:52:04;7.58;;;6.72;;
82417;SDS011;75985;53.734;10.260;2024-01-30T10:55:10;8.73;;;6.92;;
82417;SDS011;75985;53.734;10.260;2024-01-30T10:58:16;7.58;;;6.42;;
82417;SDS011;75985;53.734;10.260;2024-01-30T11:01:21;7.17;;;6.20;;
82417;SDS011;75985;53.734;10.260;2024-01-30T11:04:27;7.67;;;6.87;;
82417;SDS011;75985;53.734;10.260;2024-01-30T11:07:43;6.95;;;6.25;;
82417;SDS011;75985;53.734;10.260;2024-01-30T11:10:48;7.15;;;5.50;;
82417;SDS011;75985;53.734;10.260;2024-01-30T11:13:52;9.80;;;7.37;;
82417;SDS011;75985;53.734;10.260;2024-01-30T11:16:57;9.63;;;8.45;;
82417;SDS011;75985;53.734;10.260;2024-01-30T11:20:03;8.60;;;6.35;;
82417;SDS011;75985;53.734;10.260;2024-01-30T11:23:07;9.60;;;7.60;;
82417;SDS011;75985;53.734;10.260;2024-01-30T11:26:15;9.63;;;6.92;;
82417;SDS011;75985;53.734;10.260;2024-01-30T11:29:20;10.48;;;7.75;;
82417;SDS011;75985;53.734;10.260;2024-01-30T11:32:27;9.05;;;8.05;;
82417;SDS011;75985;53.734;10.260;2024-01-30T11:35:32;8.23;;;7.50;;
82417;SDS011;75985;53.734;10.260;2024-01-30T11:38:38;6.95;;;6.15;;
82417;SDS011;75985;53.734;10.260;2024-01-30T11:41:45;8.33;;;7.00;;
82417;SDS011;75985;53.734;10.260;2024-01-30T11:44:51;7.95;;;7.15;;
82417;SDS011;75985;53.734;10.260;2024-01-30T11:47:55;9.30;;;7.97;;
82417;SDS011;75985;53.734;10.260;2024-01-30T11:51:03;8.40;;;7.47;;
82417;SDS011;75985;53.734;10.260;2024-01-30T11:54:07;11.50;;;7.20;;
82417;SDS011;75985;53.734;10.260;2024-01-30T11:57:12;8.38;;;7.20;;
82417;SDS011;75985;53.734;10.260;2024-01-30T12:00:17;7.42;;;6.22;;
82417;SDS011;75985;53.734;10.260;2024-01-30T12:03:23;6.55;;;5.92;;
82417;SDS011;75985;53.734;10.260;2024-01-30T12:06:28;10.48;;;8.25;;
82417;SDS011;75985;53.734;10.260;2024-01-30T12:09:33;9.23;;;7.72;;
82417;SDS011;75985;53.734;10.260;2024-01-30T12:12:37;7.92;;;6.72;;
82417;SDS011;75985;53.734;10.260;2024-01-30T12:15:43;7.35;;;6.40;;
82417;SDS011;75985;53.734;10.260;2024-01-30T12:18:47;7.60;;;6.87;;
82417;SDS011;75985;53.734;10.260;2024-01-30T12:21:56;8.43;;;7.45;;
82417;SDS011;75985;53.734;10.260;2024-01-30T12:25:03;8.40;;;6.40;;
82417;SDS011;75985;53.734;10.260;2024-01-30T12:28:09;10.70;;;8.38;;
82417;SDS011;75985;53.734;10.260;2024-01-30T12:31:15;8.53;;;7.62;;
82417;SDS011;75985;53.734;10.260;2024-01-30T12:34:20;8.20;;;7.17;;
82417;SDS011;75985;53.734;10.260;2024-01-30T12:37:25;7.70;;;6.85;;
82417;SDS011;75985;53.734;10.260;2024-01-30T12:40:29;6.80;;;6.17;;
82417;SDS011;75985;53.734;10.260;2024-01-30T12:43:35;9.90;;;8.43;;
82417;SDS011;75985;53.734;10.260;2024-01-30T12:46:40;10.93;;;7.97;;
82417;SDS011;75985;53.734;10.260;2024-01-30T12:49:45;8.43;;;6.80;;
82417;SDS011;75985;53.734;10.260;2024-01-30T12:52:49;8.35;;;6.28;;
82417;SDS011;75985;53.734;10.260;2024-01-30T12:55:54;8.55;;;6.25;;
82417;SDS011;75985;53.734;10.260;2024-01-30T12:58:58;7.00;;;6.30;;
82417;SDS011;75985;53.734;10.260;2024-01-30T13:02:03;13.93;;;8.65;;
82417;SDS011;75985;53.734;10.260;2024-01-30T13:05:08;9.83;;;8.03;;
82417;SDS011;75985;53.734;10.260;2024-01-30T13:08:13;7.85;;;7.08;;
82417;SDS011;75985;53.734;10.260;2024-01-30T13:11:17;11.03;;;8.10;;
82417;SDS011;75985;53.734;10.260;2024-01-30T13:14:22;9.63;;;7.72;;
82417;SDS011;75985;53.734;10.260;2024-01-30T13:17:28;9.78;;;8.43;;
82417;SDS011;75985;53.734;10.260;2024-01-30T13:20:32;8.80;;;7.90;;
82417;SDS011;75985;53.734;10.260;2024-01-30T13:23:37;10.00;;;8.33;;
82417;SDS011;75985;53.734;10.260;2024-01-30T13:26:48;11.63;;;8.95;;
82417;SDS011;75985;53.734;10.260;2024-01-30T13:29:48;10.28;;;8.08;;
82417;SDS011;75985;53.734;10.260;2024-01-30T13:32:52;11.30;;;8.08;;
82417;SDS011;75985;53.734;10.260;2024-01-30T13:35:57;12.35;;;9.90;;
82417;SDS011;75985;53.734;10.260;2024-01-30T13:39:01;9.25;;;8.35;;
82417;SDS011;75985;53.734;10.260;2024-01-30T13:42:07;8.53;;;7.67;;
82417;SDS011;75985;53.734;10.260;2024-01-30T13:45:11;8.95;;;7.92;;
82417;SDS011;75985;53.734;10.260;2024-01-30T13:48:16;10.15;;;7.90;;
82417;SDS011;75985;53.734;10.260;2024-01-30T13:51:20;10.00;;;8.15;;
82417;SDS011;75985;53.734;10.260;2024-01-30T13:54:25;12.55;;;8.93;;
82417;SDS011;75985;53.734;10.260;2024-01-30T13:57:30;10.78;;;8.60;;
82417;SDS011;75985;53.734;10.260;2024-01-30T14:00:36;9.50;;;7.50;;
82417;SDS011;75985;53.734;10.260;2024-01-30T14:03:41;11.60;;;8.78;;
82417;SDS011;75985;53.734;10.260;2024-01-30T14:06:45;11.80;;;9.25;;
82417;SDS011;75985;53.734;10.260;2024-01-30T14:09:50;9.50;;;7.97;;
82417;SDS011;75985;53.734;10.260;2024-01-30T14:12:54;9.38;;;7.75;;
82417;SDS011;75985;53.734;10.260;2024-01-30T14:15:59;7.65;;;6.87;;
82417;SDS011;75985;53.734;10.260;2024-01-30T14:19:03;10.03;;;7.97;;
82417;SDS011;75985;53.734;10.260;2024-01-30T14:22:08;7.78;;;6.67;;
82417;SDS011;75985;53.734;10.260;2024-01-30T14:25:13;7.85;;;6.12;;
82417;SDS011;75985;53.734;10.260;2024-01-30T14:28:19;9.05;;;7.90;;
82417;SDS011;75985;53.734;10.260;2024-01-30T14:31:23;8.70;;;6.97;;
82417;SDS011;75985;53.734;10.260;2024-01-30T14:34:28;7.08;;;5.85;;
82417;SDS011;75985;53.734;10.260;2024-01-30T14:37:32;9.60;;;7.12;;
82417;SDS011;75985;53.734;10.260;2024-01-30T14:40:37;5.95;;;5.35;;
82417;SDS011;75985;53.734;10.260;2024-01-30T14:43:42;7.62;;;6.37;;
82417;SDS011;75985;53.734;10.260;2024-01-30T14:46:47;6.40;;;5.37;;
82417;SDS011;75985;53.734;10.260;2024-01-30T14:49:51;5.90;;;5.30;;
82417;SDS011;75985;53.734;10.260;2024-01-30T14:52:56;7.25;;;6.55;;
82417;SDS011;75985;53.734;10.260;2024-01-30T14:56:00;6.28;;;5.60;;
82417;SDS011;75985;53.734;10.260;2024-01-30T14:59:05;7.30;;;6.17;;
82417;SDS011;75985;53.734;10.260;2024-01-30T15:02:10;7.58;;;6.03;;
82417;SDS011;75985;53.734;10.260;2024-01-30T15:05:14;7.40;;;6.70;;
82417;SDS011;75985;53.734;10.260;2024-01-30T15:08:19;8.23;;;6.95;;
82417;SDS011;75985;53.734;10.260;2024-01-30T15:11:23;5.78;;;5.22;;
82417;SDS011;75985;53.734;10.260;2024-01-30T15:14:28;7.22;;;6.45;;
82417;SDS011;75985;53.734;10.260;2024-01-30T15:17:32;6.00;;;5.40;;
82417;SDS011;75985;53.734;10.260;2024-01-30T15:20:37;6.70;;;5.72;;
82417;SDS011;75985;53.734;10.260;2024-01-30T15:23:42;6.45;;;5.65;;
82417;SDS011;75985;53.734;10.260;2024-01-30T15:26:46;6.90;;;5.58;;
82417;SDS011;75985;53.734;10.260;2024-01-30T15:29:51;5.58;;;5.00;;
82417;SDS011;75985;53.734;10.260;2024-01-30T15:32:55;9.78;;;8.28;;
82417;SDS011;75985;53.734;10.260;2024-01-30T15:36:00;6.60;;;6.00;;
82417;SDS011;75985;53.734;10.260;2024-01-30T15:39:05;8.93;;;5.83;;
82417;SDS011;75985;53.734;10.260;2024-01-30T15:42:09;5.80;;;5.30;;
82417;SDS011;75985;53.734;10.260;2024-01-30T15:45:14;6.25;;;5.33;;
82417;SDS011;75985;53.734;10.260;2024-01-30T15:48:18;6.92;;;5.65;;
82417;SDS011;75985;53.734;10.260;2024-01-30T15:51:23;6.00;;;5.40;;
82417;SDS011;75985;53.734;10.260;2024-01-30T15:54:28;6.47;;;5.60;;
82417;SDS011;75985;53.734;10.260;2024-01-30T15:57:32;5.22;;;4.72;;
82417;SDS011;75985;53.734;10.260;2024-01-30T16:00:37;6.30;;;5.55;;
82417;SDS011;75985;53.734;10.260;2024-01-30T16:03:41;4.97;;;4.47;;
82417;SDS011;75985;53.734;10.260;2024-01-30T16:06:48;6.42;;;5.05;;
82417;SDS011;75985;53.734;10.260;2024-01-30T16:09:53;6.12;;;5.42;;
82417;SDS011;75985;53.734;10.260;2024-01-30T16:12:57;8.18;;;6.72;;
82417;SDS011;75985;53.734;10.260;2024-01-30T16:16:02;6.00;;;5.05;;
82417;SDS011;75985;53.734;10.260;2024-01-30T16:19:10;7.03;;;6.30;;
82417;SDS011;75985;53.734;10.260;2024-01-30T16:22:15;9.58;;;7.70;;
82417;SDS011;75985;53.734;10.260;2024-01-30T16:25:19;14.55;;;10.90;;
82417;SDS011;75985;53.734;10.260;2024-01-30T16:28:25;13.60;;;9.73;;
82417;SDS011;75985;53.734;10.260;2024-01-30T16:31:30;13.25;;;9.95;;
82417;SDS011;75985;53.734;10.260;2024-01-30T16:34:35;12.65;;;9.33;;
82417;SDS011;75985;53.734;10.260;2024-01-30T16:37:39;9.68;;;8.68;;
82417;SDS011;75985;53.734;10.260;2024-01-30T16:40:46;11.50;;;9.43;;
82417;SDS011;75985;53.734;10.260;2024-01-30T16:43:52;12.47;;;9.08;;
82417;SDS011;75985;53.734;10.260;2024-01-30T16:46:57;12.28;;;9.03;;
82417;SDS011;75985;53.734;10.260;2024-01-30T16:50:01;12.85;;;9.70;;
82417;SDS011;75985;53.734;10.260;2024-01-30T16:53:06;12.93;;;10.38;;
82417;SDS011;75985;53.734;10.260;2024-01-30T16:56:10;13.28;;;10.90;;
82417;SDS011;75985;53.734;10.260;2024-01-30T16:59:15;13.53;;;10.88;;
82417;SDS011;75985;53.734;10.260;2024-01-30T17:02:21;17.52;;;10.98;;
82417;SDS011;75985;53.734;10.260;2024-01-30T17:05:26;13.98;;;10.53;;
82417;SDS011;75985;53.734;10.260;2024-01-30T17:08:37;14.83;;;10.43;;
82417;SDS011;75985;53.734;10.260;2024-01-30T17:11:36;10.85;;;9.73;;
82417;SDS011;75985;53.734;10.260;2024-01-30T17:14:41;12.30;;;9.95;;
82417;SDS011;75985;53.734;10.260;2024-01-30T17:17:46;11.60;;;8.83;;
82417;SDS011;75985;53.734;10.260;2024-01-30T17:20:50;11.48;;;8.93;;
82417;SDS011;75985;53.734;10.260;2024-01-30T17:23:55;12.25;;;9.08;;
82417;SDS011;75985;53.734;10.260;2024-01-30T17:27:00;11.57;;;8.93;;
82417;SDS011;75985;53.734;10.260;2024-01-30T17:30:04;11.83;;;9.73;;
82417;SDS011;75985;53.734;10.260;2024-01-30T17:33:09;10.00;;;8.88;;
82417;SDS011;75985;53.734;10.260;2024-01-30T17:36:14;12.93;;;10.78;;
82417;SDS011;75985;53.734;10.260;2024-01-30T17:39:18;15.38;;;11.45;;
82417;SDS011;75985;53.734;10.260;2024-01-30T17:42:23;18.02;;;11.35;;
82417;SDS011;75985;53.734;10.260;2024-01-30T17:45:27;14.13;;;10.53;;
82417;SDS011;75985;53.734;10.260;2024-01-30T17:48:32;13.13;;;10.30;;
82417;SDS011;75985;53.734;10.260;2024-01-30T17:51:39;15.83;;;11.68;;
82417;SDS011;75985;53.734;10.260;2024-01-30T17:54:44;14.13;;;10.65;;
82417;SDS011;75985;53.734;10.260;2024-01-30T17:57:49;16.55;;;10.53;;
82417;SDS011;75985;53.734;10.260;2024-01-30T18:00:53;12.28;;;10.90;;
82417;SDS011;75985;53.734;10.260;2024-01-30T18:03:59;17.48;;;12.20;;
82417;SDS011;75985;53.734;10.260;2024-01-30T18:07:04;14.90;;;12.03;;
82417;SDS011;75985;53.734;10.260;2024-01-30T18:10:08;15.80;;;12.53;;
82417;SDS011;75985;53.734;10.260;2024-01-30T18:13:14;16.17;;;13.28;;